sensor_id;sensor_type;location;lat;lon;timestamp;P1;durP1;ratioP1;P2;durP2;ratioP2
20888;SDS011;10604;51.976;7.594;2023-02-01T00:01:43;15.03;;;4.30;;
20888;SDS011;10604;51.976;7.594;2023-02-01T00:04:08;17.23;;;4.40;;
20888;SDS011;10604;51.976;7.594;2023-02-01T00:06:34;16.83;;;3.80;;
20888;SDS011;10604;51.976;7.594;2023-02-01T00:08:59;15.77;;;4.30;;
20888;SDS011;10604;51.976;7.594;2023-02-01T00:11:24;16.47;;;4.43;;
20888;SDS011;10604;51.976;7.594;2023-02-01T00:13:50;18.10;;;4.43;;
20888;SDS011;10604;51.976;7.594;2023-02-01T00:16:18;16.90;;;4.32;;
20888;SDS011;10604;51.976;7.594;2023-02-01T00:18:45;12.18;;;4.07;;
20888;SDS011;10604;51.976;7.594;2023-02-01T00:21:13;15.82;;;4.10;;
20888;SDS011;10604;51.976;7.594;2023-02-01T00:23:40;15.40;;;4.18;;
20888;SDS011;10604;51.976;7.594;2023-02-01T00:26:13;16.42;;;4.57;;
20888;SDS011;10604;51.976;7.594;2023-02-01T00:28:40;14.70;;;4.43;;
20888;SDS011;10604;51.976;7.594;2023-02-01T00:31:06;15.80;;;4.30;;
20888;SDS011;10604;51.976;7.594;2023-02-01T00:33:31;16.47;;;4.80;;
20888;SDS011;10604;51.976;7.594;2023-02-01T00:36:02;15.70;;;4.72;;
20888;SDS011;10604;51.976;7.594;2023-02-01T00:38:29;15.50;;;4.57;;
20888;SDS011;10604;51.976;7.594;2023-02-01T00:41:01;17.98;;;4.63;;
20888;SDS011;10604;51.976;7.594;2023-02-01T00:43:28;13.90;;;4.30;;
20888;SDS011;10604;51.976;7.594;2023-02-01T00:45:53;18.53;;;4.90;;
20888;SDS011;10604;51.976;7.594;2023-02-01T00:48:18;16.17;;;4.83;;
20888;SDS011;10604;51.976;7.594;2023-02-01T00:50:44;16.07;;;5.17;;
20888;SDS011;10604;51.976;7.594;2023-02-01T00:53:09;16.07;;;4.40;;
20888;SDS011;10604;51.976;7.594;2023-02-01T00:55:35;15.18;;;4.95;;
20888;SDS011;10604;51.976;7.594;2023-02-01T00:58:00;17.63;;;4.83;;
20888;SDS011;10604;51.976;7.594;2023-02-01T01:00:26;16.93;;;5.20;;
20888;SDS011;10604;51.976;7.594;2023-02-01T01:02:51;17.30;;;4.82;;
20888;SDS011;10604;51.976;7.594;2023-02-01T01:05:17;15.23;;;5.27;;
20888;SDS011;10604;51.976;7.594;2023-02-01T01:07:42;14.97;;;4.60;;
20888;SDS011;10604;51.976;7.594;2023-02-01T01:10:07;20.10;;;5.07;;
20888;SDS011;10604;51.976;7.594;2023-02-01T01:12:33;13.30;;;4.40;;
20888;SDS011;10604;51.976;7.594;2023-02-01T01:14:59;16.38;;;4.50;;
20888;SDS011;10604;51.976;7.594;2023-02-01T01:17:24;13.67;;;4.33;;
20888;SDS011;10604;51.976;7.594;2023-02-01T01:19:50;17.90;;;4.87;;
20888;SDS011;10604;51.976;7.594;2023-02-01T01:22:15;20.00;;;4.70;;
20888;SDS011;10604;51.976;7.594;2023-02-01T01:24:43;17.15;;;5.32;;
20888;SDS011;10604;51.976;7.594;2023-02-01T01:27:09;15.75;;;4.47;;
20888;SDS011;10604;51.976;7.594;2023-02-01T01:29:35;15.43;;;4.45;;
20888;SDS011;10604;51.976;7.594;2023-02-01T01:32:01;13.37;;;4.07;;
20888;SDS011;10604;51.976;7.594;2023-02-01T01:34:27;17.77;;;4.22;;
20888;SDS011;10604;51.976;7.594;2023-02-01T01:36:53;17.42;;;4.85;;
20888;SDS011;10604;51.976;7.594;2023-02-01T01:39:19;15.20;;;4.70;;
20888;SDS011;10604;51.976;7.594;2023-02-01T01:41:44;16.70;;;4.20;;
20888;SDS011;10604;51.976;7.594;2023-02-01T01:47:13;16.60;;;4.23;;
20888;SDS011;10604;51.976;7.594;2023-02-01T01:49:40;13.37;;;4.37;;
20888;SDS011;10604;51.976;7.594;2023-02-01T01:52:06;13.65;;;4.30;;
20888;SDS011;10604;51.976;7.594;2023-02-01T01:54:37;13.70;;;3.87;;
20888;SDS011;10604;51.976;7.594;2023-02-01T01:57:09;15.53;;;4.23;;
20888;SDS011;10604;51.976;7.594;2023-02-01T01:59:46;14.18;;;4.15;;
20888;SDS011;10604;51.976;7.594;2023-02-01T02:02:15;15.90;;;3.93;;
20888;SDS011;10604;51.976;7.594;2023-02-01T02:04:42;17.05;;;4.25;;
20888;SDS011;10604;51.976;7.594;2023-02-01T02:10:26;17.10;;;3.92;;
20888;SDS011;10604;51.976;7.594;2023-02-01T02:13:13;14.80;;;3.88;;
20888;SDS011;10604;51.976;7.594;2023-02-01T02:15:43;16.05;;;4.13;;
20888;SDS011;10604;51.976;7.594;2023-02-01T02:18:26;19.02;;;3.85;;
20888;SDS011;10604;51.976;7.594;2023-02-01T02:21:09;12.65;;;3.53;;
20888;SDS011;10604;51.976;7.594;2023-02-01T02:26:43;12.48;;;3.38;;
20888;SDS011;10604;51.976;7.594;2023-02-01T02:37:54;12.57;;;3.83;;
20888;SDS011;10604;51.976;7.594;2023-02-01T02:49:15;15.03;;;4.20;;
20888;SDS011;10604;51.976;7.594;2023-02-01T02:51:50;14.02;;;3.72;;
20888;SDS011;10604;51.976;7.594;2023-02-01T02:54:41;13.40;;;3.70;;
20888;SDS011;10604;51.976;7.594;2023-02-01T02:57:34;15.60;;;3.88;;
20888;SDS011;10604;51.976;7.594;2023-02-01T03:00:19;15.50;;;3.40;;
20888;SDS011;10604;51.976;7.594;2023-02-01T03:19:56;16.55;;;3.78;;
20888;SDS011;10604;51.976;7.594;2023-02-01T03:22:27;14.75;;;4.00;;
20888;SDS011;10604;51.976;7.594;2023-02-01T03:25:04;14.05;;;3.50;;
20888;SDS011;10604;51.976;7.594;2023-02-01T03:27:54;16.88;;;3.83;;
20888;SDS011;10604;51.976;7.594;2023-02-01T03:30:27;13.75;;;3.58;;
20888;SDS011;10604;51.976;7.594;2023-02-01T03:32:57;17.83;;;4.10;;
20888;SDS011;10604;51.976;7.594;2023-02-01T03:38:22;13.57;;;3.37;;
20888;SDS011;10604;51.976;7.594;2023-02-01T03:41:11;15.60;;;3.78;;
20888;SDS011;10604;51.976;7.594;2023-02-01T03:46:33;17.42;;;4.18;;
20888;SDS011;10604;51.976;7.594;2023-02-01T03:49:20;15.30;;;3.97;;
20888;SDS011;10604;51.976;7.594;2023-02-01T03:51:53;18.30;;;4.20;;
20888;SDS011;10604;51.976;7.594;2023-02-01T03:54:21;10.75;;;3.30;;
20888;SDS011;10604;51.976;7.594;2023-02-01T03:56:49;15.82;;;3.70;;
20888;SDS011;10604;51.976;7.594;2023-02-01T03:59:17;16.33;;;3.78;;
20888;SDS011;10604;51.976;7.594;2023-02-01T04:01:43;16.58;;;3.90;;
20888;SDS011;10604;51.976;7.594;2023-02-01T04:04:09;16.08;;;4.03;;
20888;SDS011;10604;51.976;7.594;2023-02-01T04:06:35;19.40;;;4.15;;
20888;SDS011;10604;51.976;7.594;2023-02-01T04:09:01;13.05;;;3.72;;
20888;SDS011;10604;51.976;7.594;2023-02-01T04:11:27;17.15;;;3.83;;
20888;SDS011;10604;51.976;7.594;2023-02-01T04:13:54;14.45;;;3.95;;
20888;SDS011;10604;51.976;7.594;2023-02-01T04:16:20;15.18;;;4.00;;
20888;SDS011;10604;51.976;7.594;2023-02-01T04:18:45;15.87;;;3.97;;
20888;SDS011;10604;51.976;7.594;2023-02-01T04:21:10;13.47;;;3.40;;
20888;SDS011;10604;51.976;7.594;2023-02-01T04:23:36;14.63;;;3.53;;
20888;SDS011;10604;51.976;7.594;2023-02-01T04:26:03;12.27;;;3.83;;
20888;SDS011;10604;51.976;7.594;2023-02-01T04:28:29;17.70;;;3.50;;
20888;SDS011;10604;51.976;7.594;2023-02-01T04:30:55;15.37;;;4.10;;
20888;SDS011;10604;51.976;7.594;2023-02-01T04:33:21;14.10;;;3.92;;
20888;SDS011;10604;51.976;7.594;2023-02-01T04:35:47;15.13;;;3.90;;
20888;SDS011;10604;51.976;7.594;2023-02-01T04:38:13;15.18;;;3.90;;
20888;SDS011;10604;51.976;7.594;2023-02-01T04:40:39;18.60;;;4.10;;
20888;SDS011;10604;51.976;7.594;2023-02-01T04:43:04;17.60;;;4.03;;
20888;SDS011;10604;51.976;7.594;2023-02-01T04:45:30;15.03;;;3.53;;
20888;SDS011;10604;51.976;7.594;2023-02-01T04:47:56;15.73;;;3.75;;
20888;SDS011;10604;51.976;7.594;2023-02-01T04:50:22;15.00;;;3.83;;
20888;SDS011;10604;51.976;7.594;2023-02-01T04:52:48;17.63;;;3.65;;
20888;SDS011;10604;51.976;7.594;2023-02-01T04:55:14;12.30;;;3.47;;
20888;SDS011;10604;51.976;7.594;2023-02-01T04:57:39;17.25;;;3.92;;
20888;SDS011;10604;51.976;7.594;2023-02-01T05:00:06;17.33;;;4.13;;
20888;SDS011;10604;51.976;7.594;2023-02-01T05:02:33;16.42;;;4.38;;
20888;SDS011;10604;51.976;7.594;2023-02-01T05:04:59;17.73;;;3.75;;
20888;SDS011;10604;51.976;7.594;2023-02-01T05:07:25;11.87;;;3.80;;
20888;SDS011;10604;51.976;7.594;2023-02-01T05:09:50;12.93;;;3.50;;
20888;SDS011;10604;51.976;7.594;2023-02-01T05:12:16;15.05;;;3.80;;
20888;SDS011;10604;51.976;7.594;2023-02-01T05:15:00;14.52;;;3.83;;
20888;SDS011;10604;51.976;7.594;2023-02-01T05:17:26;17.83;;;3.83;;
20888;SDS011;10604;51.976;7.594;2023-02-01T05:19:52;17.90;;;4.10;;
20888;SDS011;10604;51.976;7.594;2023-02-01T05:22:17;14.10;;;3.45;;
20888;SDS011;10604;51.976;7.594;2023-02-01T05:24:43;15.17;;;3.40;;
20888;SDS011;10604;51.976;7.594;2023-02-01T05:27:10;16.23;;;4.00;;
20888;SDS011;10604;51.976;7.594;2023-02-01T05:29:35;14.23;;;3.83;;
20888;SDS011;10604;51.976;7.594;2023-02-01T05:32:01;16.88;;;3.85;;
20888;SDS011;10604;51.976;7.594;2023-02-01T05:34:26;14.17;;;3.80;;
20888;SDS011;10604;51.976;7.594;2023-02-01T05:36:52;19.57;;;4.10;;
20888;SDS011;10604;51.976;7.594;2023-02-01T05:39:17;18.48;;;4.00;;
20888;SDS011;10604;51.976;7.594;2023-02-01T05:41:43;16.07;;;3.67;;
20888;SDS011;10604;51.976;7.594;2023-02-01T05:44:09;16.40;;;3.95;;
20888;SDS011;10604;51.976;7.594;2023-02-01T05:46:36;15.50;;;3.85;;
20888;SDS011;10604;51.976;7.594;2023-02-01T05:49:02;17.57;;;3.87;;
20888;SDS011;10604;51.976;7.594;2023-02-01T05:51:27;14.75;;;3.72;;
20888;SDS011;10604;51.976;7.594;2023-02-01T05:53:53;17.97;;;4.33;;
20888;SDS011;10604;51.976;7.594;2023-02-01T05:56:18;13.97;;;3.73;;
20888;SDS011;10604;51.976;7.594;2023-02-01T05:58:44;16.88;;;4.50;;
20888;SDS011;10604;51.976;7.594;2023-02-01T06:01:09;22.73;;;4.37;;
20888;SDS011;10604;51.976;7.594;2023-02-01T06:03:35;14.23;;;3.70;;
20888;SDS011;10604;51.976;7.594;2023-02-01T06:06:00;18.97;;;4.43;;
20888;SDS011;10604;51.976;7.594;2023-02-01T06:08:26;17.83;;;3.97;;
20888;SDS011;10604;51.976;7.594;2023-02-01T06:11:02;17.13;;;3.75;;
20888;SDS011;10604;51.976;7.594;2023-02-01T06:13:29;15.70;;;4.20;;
20888;SDS011;10604;51.976;7.594;2023-02-01T06:15:56;17.50;;;4.43;;
20888;SDS011;10604;51.976;7.594;2023-02-01T06:18:22;18.58;;;4.13;;
20888;SDS011;10604;51.976;7.594;2023-02-01T06:20:57;20.90;;;4.57;;
20888;SDS011;10604;51.976;7.594;2023-02-01T06:23:25;19.70;;;4.57;;
20888;SDS011;10604;51.976;7.594;2023-02-01T06:25:58;17.63;;;4.50;;
20888;SDS011;10604;51.976;7.594;2023-02-01T06:28:26;17.95;;;4.28;;
20888;SDS011;10604;51.976;7.594;2023-02-01T06:30:52;16.58;;;4.20;;
20888;SDS011;10604;51.976;7.594;2023-02-01T06:33:18;15.73;;;4.22;;
20888;SDS011;10604;51.976;7.594;2023-02-01T06:35:43;14.53;;;4.10;;
20888;SDS011;10604;51.976;7.594;2023-02-01T06:38:09;14.68;;;3.83;;
20888;SDS011;10604;51.976;7.594;2023-02-01T06:40:36;15.65;;;4.00;;
20888;SDS011;10604;51.976;7.594;2023-02-01T06:43:02;15.23;;;4.47;;
20888;SDS011;10604;51.976;7.594;2023-02-01T06:45:27;17.27;;;4.28;;
20888;SDS011;10604;51.976;7.594;2023-02-01T06:47:53;15.23;;;4.43;;
20888;SDS011;10604;51.976;7.594;2023-02-01T06:50:18;17.63;;;4.17;;
20888;SDS011;10604;51.976;7.594;2023-02-01T06:52:43;18.60;;;4.03;;
20888;SDS011;10604;51.976;7.594;2023-02-01T06:55:09;16.73;;;4.07;;
20888;SDS011;10604;51.976;7.594;2023-02-01T06:57:34;17.25;;;4.40;;
20888;SDS011;10604;51.976;7.594;2023-02-01T07:00:01;15.57;;;4.15;;
20888;SDS011;10604;51.976;7.594;2023-02-01T07:02:28;13.35;;;4.03;;
20888;SDS011;10604;51.976;7.594;2023-02-01T07:04:53;15.05;;;4.10;;
20888;SDS011;10604;51.976;7.594;2023-02-01T07:07:19;17.97;;;4.03;;
20888;SDS011;10604;51.976;7.594;2023-02-01T07:09:45;14.82;;;4.18;;
20888;SDS011;10604;51.976;7.594;2023-02-01T07:12:10;17.73;;;4.50;;
20888;SDS011;10604;51.976;7.594;2023-02-01T07:14:36;16.53;;;4.23;;
20888;SDS011;10604;51.976;7.594;2023-02-01T07:17:01;16.38;;;4.35;;
20888;SDS011;10604;51.976;7.594;2023-02-01T07:19:26;16.73;;;4.00;;
20888;SDS011;10604;51.976;7.594;2023-02-01T07:21:52;14.03;;;3.80;;
20888;SDS011;10604;51.976;7.594;2023-02-01T07:24:17;15.30;;;3.97;;
20888;SDS011;10604;51.976;7.594;2023-02-01T07:26:43;16.47;;;4.40;;
20888;SDS011;10604;51.976;7.594;2023-02-01T07:29:08;21.48;;;4.32;;
20888;SDS011;10604;51.976;7.594;2023-02-01T07:31:33;14.83;;;4.20;;
20888;SDS011;10604;51.976;7.594;2023-02-01T07:33:59;21.97;;;4.47;;
20888;SDS011;10604;51.976;7.594;2023-02-01T07:36:25;17.58;;;4.47;;
20888;SDS011;10604;51.976;7.594;2023-02-01T07:38:51;15.63;;;4.03;;
20888;SDS011;10604;51.976;7.594;2023-02-01T07:41:17;15.63;;;4.47;;
20888;SDS011;10604;51.976;7.594;2023-02-01T07:43:42;19.53;;;4.17;;
20888;SDS011;10604;51.976;7.594;2023-02-01T07:46:09;18.15;;;4.45;;
20888;SDS011;10604;51.976;7.594;2023-02-01T07:48:35;16.05;;;4.22;;
20888;SDS011;10604;51.976;7.594;2023-02-01T07:51:05;16.33;;;4.50;;
20888;SDS011;10604;51.976;7.594;2023-02-01T07:53:33;18.63;;;4.55;;
20888;SDS011;10604;51.976;7.594;2023-02-01T07:55:59;16.90;;;4.38;;
20888;SDS011;10604;51.976;7.594;2023-02-01T07:58:24;16.50;;;4.20;;
20888;SDS011;10604;51.976;7.594;2023-02-01T08:00:51;11.53;;;3.77;;
20888;SDS011;10604;51.976;7.594;2023-02-01T08:03:35;15.57;;;4.93;;
20888;SDS011;10604;51.976;7.594;2023-02-01T08:06:00;18.13;;;4.47;;
20888;SDS011;10604;51.976;7.594;2023-02-01T08:08:26;19.03;;;4.63;;
20888;SDS011;10604;51.976;7.594;2023-02-01T08:10:56;15.88;;;4.22;;
20888;SDS011;10604;51.976;7.594;2023-02-01T08:13:22;11.65;;;3.95;;
20888;SDS011;10604;51.976;7.594;2023-02-01T08:15:47;17.67;;;4.10;;
20888;SDS011;10604;51.976;7.594;2023-02-01T08:18:13;16.97;;;4.70;;
20888;SDS011;10604;51.976;7.594;2023-02-01T08:20:41;17.60;;;4.07;;
20888;SDS011;10604;51.976;7.594;2023-02-01T08:23:08;17.95;;;4.40;;
20888;SDS011;10604;51.976;7.594;2023-02-01T08:25:34;17.63;;;4.20;;
20888;SDS011;10604;51.976;7.594;2023-02-01T08:28:01;17.00;;;4.63;;
20888;SDS011;10604;51.976;7.594;2023-02-01T08:30:27;14.30;;;4.28;;
20888;SDS011;10604;51.976;7.594;2023-02-01T08:32:52;13.37;;;3.97;;
20888;SDS011;10604;51.976;7.594;2023-02-01T08:35:18;16.45;;;4.53;;
20888;SDS011;10604;51.976;7.594;2023-02-01T08:37:43;18.00;;;4.10;;
20888;SDS011;10604;51.976;7.594;2023-02-01T08:40:09;16.60;;;4.27;;
20888;SDS011;10604;51.976;7.594;2023-02-01T08:42:35;15.52;;;4.05;;
20888;SDS011;10604;51.976;7.594;2023-02-01T08:45:15;17.02;;;4.30;;
20888;SDS011;10604;51.976;7.594;2023-02-01T08:47:41;13.50;;;4.28;;
20888;SDS011;10604;51.976;7.594;2023-02-01T08:50:07;13.83;;;4.43;;
20888;SDS011;10604;51.976;7.594;2023-02-01T08:52:34;14.77;;;3.72;;
20888;SDS011;10604;51.976;7.594;2023-02-01T08:54:59;15.83;;;3.90;;
20888;SDS011;10604;51.976;7.594;2023-02-01T08:57:25;15.87;;;4.60;;
20888;SDS011;10604;51.976;7.594;2023-02-01T08:59:50;13.90;;;3.77;;
20888;SDS011;10604;51.976;7.594;2023-02-01T09:02:16;16.33;;;3.90;;
20888;SDS011;10604;51.976;7.594;2023-02-01T09:04:42;15.00;;;3.40;;
20888;SDS011;10604;51.976;7.594;2023-02-01T09:07:08;17.75;;;3.72;;
20888;SDS011;10604;51.976;7.594;2023-02-01T09:09:34;15.98;;;3.95;;
20888;SDS011;10604;51.976;7.594;2023-02-01T09:11:59;14.70;;;4.07;;
20888;SDS011;10604;51.976;7.594;2023-02-01T09:14:25;16.02;;;4.65;;
20888;SDS011;10604;51.976;7.594;2023-02-01T09:16:50;15.03;;;3.87;;
20888;SDS011;10604;51.976;7.594;2023-02-01T09:19:16;13.77;;;4.30;;
20888;SDS011;10604;51.976;7.594;2023-02-01T09:21:41;15.90;;;4.37;;
20888;SDS011;10604;51.976;7.594;2023-02-01T09:24:08;12.68;;;3.95;;
20888;SDS011;10604;51.976;7.594;2023-02-01T09:26:35;17.25;;;4.00;;
20888;SDS011;10604;51.976;7.594;2023-02-01T09:29:01;13.33;;;3.77;;
20888;SDS011;10604;51.976;7.594;2023-02-01T09:31:26;17.52;;;4.15;;
20888;SDS011;10604;51.976;7.594;2023-02-01T09:33:51;14.13;;;3.97;;
20888;SDS011;10604;51.976;7.594;2023-02-01T09:36:17;12.60;;;3.63;;
20888;SDS011;10604;51.976;7.594;2023-02-01T09:38:44;17.52;;;3.92;;
20888;SDS011;10604;51.976;7.594;2023-02-01T09:44:30;16.88;;;4.45;;
20888;SDS011;10604;51.976;7.594;2023-02-01T09:47:01;14.63;;;3.93;;
20888;SDS011;10604;51.976;7.594;2023-02-01T09:49:33;13.00;;;4.18;;
20888;SDS011;10604;51.976;7.594;2023-02-01T09:52:07;14.15;;;4.30;;
20888;SDS011;10604;51.976;7.594;2023-02-01T09:54:49;12.95;;;4.05;;
20888;SDS011;10604;51.976;7.594;2023-02-01T09:57:24;12.70;;;4.10;;
20888;SDS011;10604;51.976;7.594;2023-02-01T10:00:04;13.40;;;3.83;;
20888;SDS011;10604;51.976;7.594;2023-02-01T10:02:51;13.95;;;4.38;;
20888;SDS011;10604;51.976;7.594;2023-02-01T10:10:56;15.40;;;3.70;;
20888;SDS011;10604;51.976;7.594;2023-02-01T10:20:17;17.48;;;4.07;;
20888;SDS011;10604;51.976;7.594;2023-02-01T10:25:36;10.43;;;3.55;;
20888;SDS011;10604;51.976;7.594;2023-02-01T10:28:20;14.52;;;4.55;;
20888;SDS011;10604;51.976;7.594;2023-02-01T10:30:49;15.45;;;4.38;;
20888;SDS011;10604;51.976;7.594;2023-02-01T10:36:41;15.00;;;4.75;;
20888;SDS011;10604;51.976;7.594;2023-02-01T10:38:45;11.88;;;3.50;;
20888;SDS011;10604;51.976;7.594;2023-02-01T10:43:56;16.95;;;3.85;;
20888;SDS011;10604;51.976;7.594;2023-02-01T10:46:23;16.90;;;3.83;;
20888;SDS011;10604;51.976;7.594;2023-02-01T10:48:49;15.13;;;4.10;;
20888;SDS011;10604;51.976;7.594;2023-02-01T10:54:19;15.50;;;3.67;;
20888;SDS011;10604;51.976;7.594;2023-02-01T10:56:46;14.40;;;3.75;;
20888;SDS011;10604;51.976;7.594;2023-02-01T10:59:19;13.90;;;3.63;;
20888;SDS011;10604;51.976;7.594;2023-02-01T11:01:49;11.57;;;3.55;;
20888;SDS011;10604;51.976;7.594;2023-02-01T11:04:16;13.35;;;3.67;;
20888;SDS011;10604;51.976;7.594;2023-02-01T11:09:52;14.83;;;4.00;;
20888;SDS011;10604;51.976;7.594;2023-02-01T11:12:31;15.85;;;4.20;;
20888;SDS011;10604;51.976;7.594;2023-02-01T11:15:13;13.77;;;3.83;;
20888;SDS011;10604;51.976;7.594;2023-02-01T11:17:43;13.32;;;4.00;;
20888;SDS011;10604;51.976;7.594;2023-02-01T11:20:13;17.27;;;4.45;;
20888;SDS011;10604;51.976;7.594;2023-02-01T11:22:47;18.58;;;4.55;;
20888;SDS011;10604;51.976;7.594;2023-02-01T11:25:14;15.25;;;4.55;;
20888;SDS011;10604;51.976;7.594;2023-02-01T11:27:41;15.95;;;4.47;;
20888;SDS011;10604;51.976;7.594;2023-02-01T11:30:07;14.23;;;4.25;;
20888;SDS011;10604;51.976;7.594;2023-02-01T11:32:39;15.82;;;4.75;;
20888;SDS011;10604;51.976;7.594;2023-02-01T11:35:05;13.77;;;4.15;;
20888;SDS011;10604;51.976;7.594;2023-02-01T11:37:38;15.60;;;4.53;;
20888;SDS011;10604;51.976;7.594;2023-02-01T11:42:52;14.52;;;5.03;;
20888;SDS011;10604;51.976;7.594;2023-02-01T11:47:54;16.43;;;4.87;;
20888;SDS011;10604;51.976;7.594;2023-02-01T11:50:44;17.58;;;4.50;;
20888;SDS011;10604;51.976;7.594;2023-02-01T11:56:17;17.02;;;4.53;;
20888;SDS011;10604;51.976;7.594;2023-02-01T12:09:46;20.00;;;5.43;;
20888;SDS011;10604;51.976;7.594;2023-02-01T12:25:43;14.07;;;5.03;;
20888;SDS011;10604;51.976;7.594;2023-02-01T12:36:16;13.25;;;3.95;;
20888;SDS011;10604;51.976;7.594;2023-02-01T12:46:43;13.68;;;4.25;;
20888;SDS011;10604;51.976;7.594;2023-02-01T12:49:19;12.00;;;4.20;;
20888;SDS011;10604;51.976;7.594;2023-02-01T12:52:00;16.77;;;5.50;;
20888;SDS011;10604;51.976;7.594;2023-02-01T12:57:14;14.82;;;4.43;;
20888;SDS011;10604;51.976;7.594;2023-02-01T12:59:47;16.87;;;4.67;;
20888;SDS011;10604;51.976;7.594;2023-02-01T13:03:10;14.38;;;4.50;;
20888;SDS011;10604;51.976;7.594;2023-02-01T13:05:32;15.23;;;4.15;;
20888;SDS011;10604;51.976;7.594;2023-02-01T13:08:22;14.32;;;4.35;;
20888;SDS011;10604;51.976;7.594;2023-02-01T13:11:12;15.87;;;4.53;;
20888;SDS011;10604;51.976;7.594;2023-02-01T13:16:31;18.52;;;4.47;;
20888;SDS011;10604;51.976;7.594;2023-02-01T13:19:27;16.17;;;4.53;;
20888;SDS011;10604;51.976;7.594;2023-02-01T13:21:51;15.15;;;4.38;;
20888;SDS011;10604;51.976;7.594;2023-02-01T13:26:55;15.00;;;4.10;;
20888;SDS011;10604;51.976;7.594;2023-02-01T13:29:21;14.52;;;4.60;;
20888;SDS011;10604;51.976;7.594;2023-02-01T13:42:21;13.60;;;4.38;;
20888;SDS011;10604;51.976;7.594;2023-02-01T13:45:03;13.35;;;3.83;;
20888;SDS011;10604;51.976;7.594;2023-02-01T13:47:39;15.35;;;4.25;;
20888;SDS011;10604;51.976;7.594;2023-02-01T13:50:19;15.82;;;4.47;;
20888;SDS011;10604;51.976;7.594;2023-02-01T13:52:50;16.45;;;4.28;;
20888;SDS011;10604;51.976;7.594;2023-02-01T13:55:29;14.38;;;4.25;;
20888;SDS011;10604;51.976;7.594;2023-02-01T13:58:05;16.17;;;4.53;;
20888;SDS011;10604;51.976;7.594;2023-02-01T14:00:40;16.10;;;4.28;;
20888;SDS011;10604;51.976;7.594;2023-02-01T14:03:16;13.38;;;4.20;;
20888;SDS011;10604;51.976;7.594;2023-02-01T14:23:44;15.52;;;3.97;;
20888;SDS011;10604;51.976;7.594;2023-02-01T14:26:45;16.97;;;4.20;;
20888;SDS011;10604;51.976;7.594;2023-02-01T14:32:23;11.95;;;3.40;;
20888;SDS011;10604;51.976;7.594;2023-02-01T14:34:55;12.23;;;3.45;;
20888;SDS011;10604;51.976;7.594;2023-02-01T14:37:34;12.05;;;4.32;;
20888;SDS011;10604;51.976;7.594;2023-02-01T14:52:44;17.60;;;4.63;;
20888;SDS011;10604;51.976;7.594;2023-02-01T14:55:16;14.18;;;4.25;;
20888;SDS011;10604;51.976;7.594;2023-02-01T14:57:47;15.07;;;4.18;;
20888;SDS011;10604;51.976;7.594;2023-02-01T15:00:26;12.05;;;3.83;;
20888;SDS011;10604;51.976;7.594;2023-02-01T15:02:54;12.80;;;3.88;;
20888;SDS011;10604;51.976;7.594;2023-02-01T15:07:54;16.77;;;4.40;;
20888;SDS011;10604;51.976;7.594;2023-02-01T15:10:21;16.38;;;4.88;;
20888;SDS011;10604;51.976;7.594;2023-02-01T15:12:48;12.50;;;3.60;;
20888;SDS011;10604;51.976;7.594;2023-02-01T15:15:22;12.07;;;3.80;;
20888;SDS011;10604;51.976;7.594;2023-02-01T15:17:53;16.10;;;4.30;;
20888;SDS011;10604;51.976;7.594;2023-02-01T15:20:25;18.60;;;4.78;;
20888;SDS011;10604;51.976;7.594;2023-02-01T15:22:57;15.70;;;4.07;;
20888;SDS011;10604;51.976;7.594;2023-02-01T15:25:28;15.02;;;4.18;;
20888;SDS011;10604;51.976;7.594;2023-02-01T15:28:03;14.60;;;4.63;;
20888;SDS011;10604;51.976;7.594;2023-02-01T15:30:32;13.82;;;4.07;;
20888;SDS011;10604;51.976;7.594;2023-02-01T15:38:20;15.38;;;4.43;;
20888;SDS011;10604;51.976;7.594;2023-02-01T15:40:55;17.67;;;5.53;;
20888;SDS011;10604;51.976;7.594;2023-02-01T15:43:24;13.40;;;3.80;;
20888;SDS011;10604;51.976;7.594;2023-02-01T15:45:55;14.00;;;4.50;;
20888;SDS011;10604;51.976;7.594;2023-02-01T15:48:22;17.13;;;4.68;;
20888;SDS011;10604;51.976;7.594;2023-02-01T15:50:50;19.55;;;4.63;;
20888;SDS011;10604;51.976;7.594;2023-02-01T15:53:20;17.30;;;5.22;;
20888;SDS011;10604;51.976;7.594;2023-02-01T15:55:50;16.40;;;3.90;;
20888;SDS011;10604;51.976;7.594;2023-02-01T15:58:19;17.48;;;4.30;;
20888;SDS011;10604;51.976;7.594;2023-02-01T16:00:47;13.23;;;3.83;;
20888;SDS011;10604;51.976;7.594;2023-02-01T16:03:26;15.00;;;4.47;;
20888;SDS011;10604;51.976;7.594;2023-02-01T16:05:59;15.25;;;4.20;;
20888;SDS011;10604;51.976;7.594;2023-02-01T16:08:27;15.97;;;3.93;;
20888;SDS011;10604;51.976;7.594;2023-02-01T16:10:54;12.02;;;3.85;;
20888;SDS011;10604;51.976;7.594;2023-02-01T16:13:27;15.68;;;4.70;;
20888;SDS011;10604;51.976;7.594;2023-02-01T16:15:52;13.07;;;4.50;;
20888;SDS011;10604;51.976;7.594;2023-02-01T16:18:17;13.55;;;4.20;;
20888;SDS011;10604;51.976;7.594;2023-02-01T16:20:43;13.60;;;3.67;;
20888;SDS011;10604;51.976;7.594;2023-02-01T16:23:09;15.53;;;4.03;;
20888;SDS011;10604;51.976;7.594;2023-02-01T16:25:35;14.90;;;3.50;;
20888;SDS011;10604;51.976;7.594;2023-02-01T16:28:02;15.65;;;3.80;;
20888;SDS011;10604;51.976;7.594;2023-02-01T16:30:29;13.43;;;3.55;;
20888;SDS011;10604;51.976;7.594;2023-02-01T16:32:58;10.63;;;3.40;;
20888;SDS011;10604;51.976;7.594;2023-02-01T16:35:31;13.55;;;3.25;;
20888;SDS011;10604;51.976;7.594;2023-02-01T16:38:14;12.83;;;3.70;;
20888;SDS011;10604;51.976;7.594;2023-02-01T16:40:43;12.43;;;3.60;;
20888;SDS011;10604;51.976;7.594;2023-02-01T16:43:20;11.25;;;3.35;;
20888;SDS011;10604;51.976;7.594;2023-02-01T16:45:48;11.00;;;3.58;;
20888;SDS011;10604;51.976;7.594;2023-02-01T16:48:25;14.38;;;3.83;;
20888;SDS011;10604;51.976;7.594;2023-02-01T16:50:56;10.55;;;3.75;;
20888;SDS011;10604;51.976;7.594;2023-02-01T16:53:25;14.18;;;4.10;;
20888;SDS011;10604;51.976;7.594;2023-02-01T16:55:52;13.53;;;3.30;;
20888;SDS011;10604;51.976;7.594;2023-02-01T16:58:19;13.82;;;3.55;;
20888;SDS011;10604;51.976;7.594;2023-02-01T17:00:46;10.73;;;3.25;;
20888;SDS011;10604;51.976;7.594;2023-02-01T17:03:12;11.63;;;3.88;;
20888;SDS011;10604;51.976;7.594;2023-02-01T17:05:41;12.45;;;3.85;;
20888;SDS011;10604;51.976;7.594;2023-02-01T17:08:11;14.75;;;4.47;;
20888;SDS011;10604;51.976;7.594;2023-02-01T17:10:39;12.52;;;4.07;;
20888;SDS011;10604;51.976;7.594;2023-02-01T17:13:05;10.87;;;3.50;;
20888;SDS011;10604;51.976;7.594;2023-02-01T17:15:33;12.25;;;3.67;;
20888;SDS011;10604;51.976;7.594;2023-02-01T17:18:00;11.43;;;3.78;;
20888;SDS011;10604;51.976;7.594;2023-02-01T17:20:27;13.80;;;3.67;;
20888;SDS011;10604;51.976;7.594;2023-02-01T17:22:57;9.05;;;3.40;;
20888;SDS011;10604;51.976;7.594;2023-02-01T17:25:23;10.25;;;3.33;;
20888;SDS011;10604;51.976;7.594;2023-02-01T17:27:50;10.25;;;3.10;;
20888;SDS011;10604;51.976;7.594;2023-02-01T17:30:15;11.40;;;3.27;;
20888;SDS011;10604;51.976;7.594;2023-02-01T17:32:41;9.18;;;3.05;;
20888;SDS011;10604;51.976;7.594;2023-02-01T17:35:15;10.43;;;3.30;;
20888;SDS011;10604;51.976;7.594;2023-02-01T17:37:45;7.77;;;2.40;;
20888;SDS011;10604;51.976;7.594;2023-02-01T17:40:10;10.60;;;3.15;;
20888;SDS011;10604;51.976;7.594;2023-02-01T17:42:37;7.55;;;3.15;;
20888;SDS011;10604;51.976;7.594;2023-02-01T17:48:05;8.07;;;2.45;;
20888;SDS011;10604;51.976;7.594;2023-02-01T17:50:32;5.47;;;2.07;;
20888;SDS011;10604;51.976;7.594;2023-02-01T17:53:00;9.00;;;2.40;;
20888;SDS011;10604;51.976;7.594;2023-02-01T17:55:27;7.28;;;2.13;;
20888;SDS011;10604;51.976;7.594;2023-02-01T17:57:53;8.95;;;2.17;;
20888;SDS011;10604;51.976;7.594;2023-02-01T18:00:19;7.40;;;2.00;;